Time;durP1;ratioP1;P1;durP2;ratioP2;P2;SDS_P1;SDS_P2;PMS_P1;PMS_P2;Temp;Humidity;BMP_temperature;BMP_pressure;BME280_temperature;BME280_humidity;BME280_pressure;Samples;Min_cycle;Max_cycle;Signal;HPM_P1;HPM_P2
2022/05/11 00:00:08;;;;;;;30.08;10.95;;;12.20;99.90;;;;;;5042693;28;20107;-52
2022/05/11 00:02:33;;;;;;;30.80;11.05;;;12.30;99.90;;;;;;5049664;28;20033;-51
2022/05/11 00:04:59;;;;;;;37.90;11.80;;;12.20;99.90;;;;;;5049394;28;20078;-51
2022/05/11 00:07:25;;;;;;;21.75;11.85;;;12.30;99.90;;;;;;5049231;28;20040;-51
2022/05/11 00:09:51;;;;;;;21.52;10.82;;;12.30;99.90;;;;;;5049801;28;20036;-51
2022/05/11 00:12:17;;;;;;;34.70;10.55;;;12.20;99.90;;;;;;5049761;28;20512;-51
2022/05/11 00:14:43;;;;;;;28.42;12.65;;;12.10;99.90;;;;;;5049628;28;20021;-51
2022/05/11 00:17:08;;;;;;;28.35;11.55;;;12.00;99.90;;;;;;5049010;28;20032;-51
2022/05/11 00:19:36;;;;;;;25.65;11.23;;;12.00;99.90;;;;;;5048894;28;20412;-51
2022/05/11 00:22:02;;;;;;;19.85;9.23;;;12.00;99.90;;;;;;5049576;28;20075;-51
2022/05/11 00:24:27;;;;;;;27.67;11.02;;;12.10;99.90;;;;;;5049575;28;20450;-51
2022/05/11 00:26:53;;;;;;;32.42;11.18;;;12.30;99.90;;;;;;5049629;28;20024;-52
2022/05/11 00:29:19;;;;;;;33.55;12.27;;;12.20;99.90;;;;;;5031186;28;20029;-51
2022/05/11 00:31:44;;;;;;;25.42;12.55;;;12.10;99.90;;;;;;5049271;28;20026;-51
2022/05/11 00:34:10;;;;;;;34.28;12.48;;;12.20;99.90;;;;;;5049410;28;20021;-52
2022/05/11 00:36:36;;;;;;;29.95;12.07;;;12.10;99.90;;;;;;5049323;28;20044;-51
2022/05/11 00:39:02;;;;;;;30.17;12.23;;;12.00;99.90;;;;;;5049035;28;20031;-51
2022/05/11 00:41:28;;;;;;;23.13;10.97;;;11.90;99.90;;;;;;5049448;28;20443;-52
2022/05/11 00:43:59;;;;;;;23.83;11.25;;;11.90;99.90;;;;;;5049200;28;20613;-51
2022/05/11 00:46:25;;;;;;;36.17;11.20;;;11.90;99.90;;;;;;5049154;28;20021;-51
2022/05/11 00:51:47;;;;;;;32.88;11.93;;;11.90;99.90;;;;;;5049106;28;20115;-51
2022/05/11 00:54:17;;;;;;;32.00;11.23;;;11.90;99.90;;;;;;5049267;28;20025;-51
2022/05/11 00:56:49;;;;;;;34.05;10.63;;;11.80;99.90;;;;;;5048999;28;20032;-51
2022/05/11 00:59:21;;;;;;;29.77;11.55;;;11.80;99.90;;;;;;5049019;28;20727;-51
2022/05/11 01:01:47;;;;;;;23.98;10.80;;;11.70;99.90;;;;;;5049517;28;20104;-51
2022/05/11 01:04:16;;;;;;;27.55;10.60;;;11.70;99.90;;;;;;5048958;28;20033;-51
2022/05/11 01:06:42;;;;;;;23.02;11.25;;;11.70;99.90;;;;;;5049172;28;20553;-51
2022/05/11 01:09:10;;;;;;;29.60;11.87;;;11.70;99.90;;;;;;5049289;28;20025;-51
2022/05/11 01:11:43;;;;;;;29.70;12.57;;;11.60;99.90;;;;;;5048991;28;20040;-51
2022/05/11 01:14:12;;;;;;;24.25;11.57;;;11.60;99.90;;;;;;5031096;28;20647;-51
2022/05/11 01:16:39;;;;;;;27.95;12.63;;;11.50;99.90;;;;;;5049699;28;20719;-50
2022/05/11 01:19:07;;;;;;;30.02;12.98;;;11.50;99.90;;;;;;5052547;28;20017;-50
2022/05/11 01:21:49;;;;;;;30.70;13.18;;;11.40;99.90;;;;;;5053233;28;20496;-51
2022/05/11 01:24:39;;;;;;;22.05;11.80;;;11.40;99.90;;;;;;5052708;28;20087;-51
2022/05/11 01:27:41;;;;;;;32.33;13.27;;;11.30;99.90;;;;;;5052566;28;20107;-51
2022/05/11 01:30:12;;;;;;;27.38;12.15;;;11.20;99.90;;;;;;5047645;28;20032;-51
2022/05/11 01:32:40;;;;;;;26.98;12.32;;;11.20;99.90;;;;;;5033007;28;20044;-51
2022/05/11 01:35:36;;;;;;;25.90;13.32;;;11.20;99.90;;;;;;5035641;28;20021;-51
2022/05/11 01:38:05;;;;;;;27.65;14.05;;;11.20;99.90;;;;;;5052589;28;20029;-50
2022/05/11 01:40:30;;;;;;;20.63;13.00;;;11.20;99.90;;;;;;5052491;28;20024;-51
2022/05/11 01:42:56;;;;;;;42.03;15.25;;;11.10;99.90;;;;;;5052150;28;20045;-51
2022/05/11 01:45:22;;;;;;;30.25;12.93;;;11.10;99.90;;;;;;5052469;28;20036;-51
2022/05/11 01:47:47;;;;;;;26.15;12.90;;;11.10;99.90;;;;;;5052831;28;20108;-51
2022/05/11 01:50:13;;;;;;;31.02;13.25;;;11.00;99.90;;;;;;5052353;28;20036;-51
2022/05/11 01:52:39;;;;;;;35.72;12.45;;;11.00;99.90;;;;;;5034560;28;20033;-50
2022/05/11 01:55:05;;;;;;;23.05;12.50;;;11.10;99.90;;;;;;5052394;28;20070;-50
2022/05/11 01:57:30;;;;;;;21.70;12.07;;;10.90;99.90;;;;;;5052253;28;20098;-50
2022/05/11 01:59:56;;;;;;;21.00;12.25;;;11.00;99.90;;;;;;5051971;28;20472;-51
2022/05/11 02:02:22;;;;;;;25.33;12.73;;;10.90;99.90;;;;;;5051965;28;20021;-51
2022/05/11 02:07:50;;;;;;;23.45;12.32;;;11.00;99.90;;;;;;5052078;28;20393;-51
2022/05/11 02:10:17;;;;;;;24.55;12.52;;;11.00;99.90;;;;;;5051569;28;20025;-51
2022/05/11 02:12:43;;;;;;;24.85;13.70;;;11.00;99.90;;;;;;5052063;28;20071;-51
2022/05/11 02:15:10;;;;;;;22.25;13.57;;;11.00;99.90;;;;;;5052050;28;20465;-51
2022/05/11 02:17:36;;;;;;;22.75;13.02;;;11.10;99.90;;;;;;5051881;28;20029;-51
2022/05/11 02:20:02;;;;;;;23.55;12.13;;;11.00;99.90;;;;;;5051975;28;20055;-51
2022/05/11 02:22:28;;;;;;;19.52;12.13;;;11.10;99.90;;;;;;5041909;28;20029;-51
2022/05/11 02:24:54;;;;;;;17.88;11.10;;;11.10;99.90;;;;;;5050870;28;20493;-51
2022/05/11 02:27:20;;;;;;;24.90;12.52;;;11.10;99.90;;;;;;5051609;28;20021;-51
2022/05/11 02:29:46;;;;;;;26.98;13.13;;;11.10;99.90;;;;;;5050919;28;20431;-51
2022/05/11 02:32:11;;;;;;;21.58;12.85;;;11.30;99.90;;;;;;5051439;28;20029;-51
2022/05/11 02:37:21;;;;;;;14.80;7.75;;;11.40;99.90;;;;;;5051136;28;20538;-51
2022/05/11 02:39:48;;;;;;;22.40;11.52;;;11.60;99.90;;;;;;5051318;28;20024;-51
2022/05/11 02:42:15;;;;;;;24.83;11.05;;;11.80;99.90;;;;;;5050913;28;20515;-51
2022/05/11 02:44:41;;;;;;;22.98;12.40;;;11.80;99.90;;;;;;5051350;28;20037;-51
2022/05/11 02:47:06;;;;;;;24.85;13.00;;;11.80;99.90;;;;;;5051339;28;20029;-51
2022/05/11 02:49:32;;;;;;;24.70;12.02;;;11.70;99.90;;;;;;5051005;28;20025;-51
2022/05/11 02:51:58;;;;;;;23.25;12.27;;;11.60;99.90;;;;;;5050823;28;20037;-51
2022/05/11 02:54:24;;;;;;;21.25;11.85;;;11.60;99.90;;;;;;5051177;28;20032;-50
2022/05/11 02:56:50;;;;;;;18.15;8.88;;;11.60;99.90;;;;;;5051272;28;20103;-51
2022/05/11 02:59:15;;;;;;;18.75;9.75;;;11.70;99.90;;;;;;5046086;28;20453;-51
2022/05/11 03:01:41;;;;;;;16.77;9.43;;;11.70;99.90;;;;;;5041504;28;20111;-51
2022/05/11 03:04:07;;;;;;;24.85;11.13;;;11.90;99.90;;;;;;5049889;28;20039;-51
2022/05/11 03:06:33;;;;;;;18.80;10.75;;;12.00;99.90;;;;;;5044162;28;20049;-51
2022/05/11 03:08:59;;;;;;;21.55;9.32;;;12.00;99.90;;;;;;5050673;28;20029;-51
2022/05/11 03:11:24;;;;;;;17.10;7.88;;;12.10;99.90;;;;;;5050766;28;20129;-51
2022/05/11 03:13:50;;;;;;;20.52;8.38;;;12.10;99.90;;;;;;5032267;28;20481;-52
2022/05/11 03:16:17;;;;;;;15.98;8.15;;;12.30;99.90;;;;;;5050887;28;20116;-52
2022/05/11 03:18:42;;;;;;;19.67;8.10;;;12.40;99.90;;;;;;5050384;28;20029;-51
2022/05/11 03:21:08;;;;;;;17.95;7.05;;;12.50;99.90;;;;;;5050610;28;20527;-51
2022/05/11 03:23:34;;;;;;;17.52;8.23;;;12.70;99.90;;;;;;5050195;28;20551;-51
2022/05/11 03:25:59;;;;;;;19.85;8.05;;;12.80;99.90;;;;;;5050594;28;20048;-51
2022/05/11 03:28:26;;;;;;;21.10;7.57;;;12.90;99.90;;;;;;5050288;28;20029;-51
2022/05/11 03:30:52;;;;;;;20.83;7.88;;;13.10;99.90;;;;;;5050496;28;20025;-52
2022/05/11 03:36:02;;;;;;;21.58;7.90;;;13.20;99.90;;;;;;5050599;28;20032;-52
2022/05/11 03:38:28;;;;;;;17.55;8.02;;;13.50;99.90;;;;;;5049939;28;20035;-51
2022/05/11 03:40:53;;;;;;;14.55;7.20;;;13.50;99.90;;;;;;5031414;28;20029;-52
2022/05/11 03:43:19;;;;;;;17.92;7.35;;;13.60;99.90;;;;;;5049648;28;20049;-52
2022/05/11 03:45:45;;;;;;;18.35;7.45;;;13.70;99.90;;;;;;5050173;28;20495;-51
2022/05/11 03:48:11;;;;;;;12.60;7.07;;;13.90;99.90;;;;;;5050029;28;20052;-51
2022/05/11 03:50:38;;;;;;;27.60;7.70;;;13.90;99.90;;;;;;5050009;28;20481;-52
2022/05/11 03:53:03;;;;;;;17.08;7.68;;;14.00;99.90;;;;;;5049730;28;20051;-51
2022/05/11 03:55:29;;;;;;;13.85;7.05;;;14.00;99.90;;;;;;5050130;28;20463;-51
2022/05/11 03:57:55;;;;;;;16.92;7.57;;;14.10;99.90;;;;;;5049744;28;20053;-51
2022/05/11 04:00:23;;;;;;;15.90;7.45;;;14.10;99.90;;;;;;5049780;28;20021;-51
2022/05/11 04:02:51;;;;;;;14.07;6.80;;;14.30;99.90;;;;;;5049613;28;20496;-51
2022/05/11 04:05:18;;;;;;;14.25;6.93;;;14.30;99.90;;;;;;5049559;28;20116;-51
2022/05/11 04:07:44;;;;;;;16.70;6.68;;;14.30;99.90;;;;;;5049696;28;20416;-52
2022/05/11 04:10:12;;;;;;;15.90;7.35;;;14.50;99.90;;;;;;5049990;28;20033;-52
2022/05/11 04:12:38;;;;;;;10.93;6.10;;;14.40;99.90;;;;;;5049396;28;20512;-51
2022/05/11 04:15:05;;;;;;;15.07;6.35;;;14.60;99.90;;;;;;5049218;28;20041;-51
2022/05/11 04:17:31;;;;;;;17.83;7.57;;;14.60;99.90;;;;;;5049353;28;20029;-51
2022/05/11 04:19:56;;;;;;;17.05;6.90;;;14.60;99.90;;;;;;5049715;28;20102;-51
2022/05/11 04:22:22;;;;;;;13.00;7.00;;;14.60;99.90;;;;;;5049424;28;20032;-51
2022/05/11 04:24:48;;;;;;;15.63;7.32;;;14.60;99.90;;;;;;5049599;28;20021;-51
2022/05/11 04:27:13;;;;;;;13.13;6.47;;;14.70;99.90;;;;;;5049501;28;20036;-51
2022/05/11 04:29:40;;;;;;;13.25;6.18;;;14.70;99.90;;;;;;5049662;28;20807;-51
2022/05/11 04:32:07;;;;;;;15.13;5.80;;;14.70;99.90;;;;;;5049092;28;20531;-51
2022/05/11 04:34:34;;;;;;;14.50;6.50;;;14.70;99.90;;;;;;5049091;28;20028;-51
2022/05/11 04:37:00;;;;;;;15.82;5.88;;;14.70;99.90;;;;;;5049847;28;20104;-52
2022/05/11 04:39:27;;;;;;;14.18;6.20;;;14.80;99.90;;;;;;5031406;28;20129;-51
2022/05/11 04:41:52;;;;;;;17.92;6.88;;;14.80;99.90;;;;;;5049499;28;20029;-51
2022/05/11 04:44:18;;;;;;;12.63;5.57;;;14.90;99.90;;;;;;5048873;28;20052;-51
2022/05/11 04:46:44;;;;;;;13.52;5.55;;;14.90;99.90;;;;;;5049215;28;20060;-51
2022/05/11 04:49:23;;;;;;;12.95;6.15;;;15.00;99.90;;;;;;5031445;28;20078;-51
2022/05/11 04:52:00;;;;;;;12.55;5.45;;;15.00;99.90;;;;;;5050289;28;20037;-52
2022/05/11 04:54:26;;;;;;;19.10;6.50;;;15.10;99.90;;;;;;5049987;28;20377;-51
2022/05/11 04:56:51;;;;;;;11.95;5.50;;;15.20;99.90;;;;;;5033214;28;20025;-51
2022/05/11 04:59:17;;;;;;;18.45;6.53;;;15.20;99.90;;;;;;5033071;28;20037;-52
2022/05/11 05:01:44;;;;;;;13.00;5.82;;;15.30;99.90;;;;;;5050549;28;20021;-51
2022/05/11 05:04:10;;;;;;;14.50;6.10;;;15.40;99.90;;;;;;5053213;28;20033;-51
2022/05/11 05:06:38;;;;;;;12.43;5.30;;;15.40;99.90;;;;;;5052847;28;20492;-51
2022/05/11 05:09:05;;;;;;;19.83;6.00;;;15.50;99.90;;;;;;5052791;28;20039;-51
2022/05/11 05:11:32;;;;;;;12.93;6.00;;;15.50;99.90;;;;;;5052572;28;20037;-51
2022/05/11 05:13:58;;;;;;;14.55;6.18;;;15.70;99.90;;;;;;5052679;28;20041;-51
2022/05/11 05:16:24;;;;;;;16.05;6.05;;;15.80;99.90;;;;;;5052724;28;20084;-51
2022/05/11 05:18:50;;;;;;;14.85;5.85;;;15.80;99.90;;;;;;5052672;28;20052;-51
2022/05/11 05:21:16;;;;;;;16.15;5.47;;;15.90;99.90;;;;;;5052945;28;20071;-52
2022/05/11 05:23:42;;;;;;;16.67;6.03;;;16.00;99.90;;;;;;5052056;28;20033;-51
2022/05/11 05:26:08;;;;;;;16.35;6.25;;;16.10;99.90;;;;;;5052853;28;20040;-51
2022/05/11 05:31:21;;;;;;;13.68;6.57;;;16.30;99.90;;;;;;5052965;28;20086;-51
2022/05/11 05:33:48;;;;;;;16.35;5.90;;;16.30;99.90;;;;;;5052276;28;20039;-51
2022/05/11 05:36:13;;;;;;;15.18;5.70;;;16.40;99.90;;;;;;5038591;28;20033;-51
2022/05/11 05:38:47;;;;;;;21.33;6.88;;;16.40;99.90;;;;;;5055168;23;20060;-90
2022/05/11 05:41:13;;;;;;;20.25;6.60;;;16.40;99.90;;;;;;5058380;28;20025;-88
2022/05/11 05:43:39;;;;;;;20.63;6.93;;;16.40;99.90;;;;;;5042685;28;20049;-90
2022/05/11 05:46:06;;;;;;;36.40;8.27;;;16.40;99.90;;;;;;5043437;28;20468;-88
2022/05/11 05:48:32;;;;;;;20.00;8.00;;;16.50;99.90;;;;;;5044802;28;20016;-86
2022/05/11 05:51:06;;;;;;;18.05;7.97;;;16.60;99.90;;;;;;5044410;28;20025;-91
2022/05/11 05:53:34;;;;;;;15.23;7.40;;;16.70;99.90;;;;;;5059454;28;20815;-85
2022/05/11 05:56:00;;;;;;;14.80;6.93;;;16.80;99.90;;;;;;5089219;23;20065;-52
2022/05/11 05:58:26;;;;;;;19.98;6.57;;;16.90;99.90;;;;;;5031983;28;20037;-50
2022/05/11 06:00:52;;;;;;;12.93;6.43;;;17.10;99.90;;;;;;5031814;28;20523;-50
2022/05/11 06:03:20;;;;;;;19.10;6.55;;;17.20;99.90;;;;;;5030735;28;20105;-49
2022/05/11 06:05:45;;;;;;;16.38;6.18;;;17.20;99.90;;;;;;5032045;28;20479;-50
2022/05/11 06:08:15;;;;;;;16.52;6.30;;;17.40;99.90;;;;;;5032100;28;20033;-50
2022/05/11 06:10:41;;;;;;;15.20;6.00;;;17.40;99.90;;;;;;5032248;28;20071;-51
2022/05/11 06:13:07;;;;;;;13.93;5.65;;;17.50;99.90;;;;;;5031986;28;20034;-50
2022/05/11 06:15:35;;;;;;;12.77;5.67;;;17.60;99.90;;;;;;5031873;28;20030;-51
2022/05/11 06:18:01;;;;;;;;;;;17.70;99.90;;;;;;5032288;28;20053;-51
2022/05/11 06:20:27;;;;;;;16.10;5.75;;;17.80;99.90;;;;;;5032187;28;19956;-50
2022/05/11 06:22:53;;;;;;;13.70;5.70;;;17.80;99.90;;;;;;5031321;28;20036;-50
2022/05/11 06:25:20;;;;;;;19.58;5.75;;;17.90;99.90;;;;;;5032272;28;20091;-50
2022/05/11 06:27:46;;;;;;;10.93;5.63;;;17.90;99.90;;;;;;5031501;28;20513;-50
2022/05/11 06:30:12;;;;;;;24.23;6.00;;;18.10;99.90;;;;;;5030540;28;20034;-51
2022/05/11 06:32:38;;;;;;;16.20;4.53;;;18.30;99.90;;;;;;5031157;28;20034;-51
2022/05/11 06:35:04;;;;;;;14.82;4.93;;;18.40;99.90;;;;;;5032029;28;20025;-52
2022/05/11 06:37:30;;;;;;;14.67;4.80;;;18.40;99.90;;;;;;5031385;28;20080;-51
2022/05/11 06:39:56;;;;;;;12.93;4.70;;;18.40;99.90;;;;;;5031745;28;20417;-51
2022/05/11 06:42:22;;;;;;;13.98;4.78;;;18.40;99.90;;;;;;5031367;28;20029;-50
2022/05/11 06:44:49;;;;;;;14.57;5.40;;;18.40;99.90;;;;;;5031616;28;20018;-51
2022/05/11 06:47:16;;;;;;;11.48;4.78;;;18.40;99.90;;;;;;5031057;28;20472;-51
2022/05/11 06:49:41;;;;;;;11.38;5.28;;;18.40;99.90;;;;;;5031596;28;20115;-51
2022/05/11 06:52:08;;;;;;;12.60;5.50;;;18.60;99.90;;;;;;5030721;28;20172;-51
2022/05/11 07:00:03;;;;;;;13.45;4.43;;;18.90;99.90;;;;;;5051183;28;20031;-51
2022/05/11 07:02:29;;;;;;;14.48;4.63;;;18.90;99.90;;;;;;5011016;28;20037;-52
2022/05/11 07:04:56;;;;;;;11.52;4.63;;;19.00;99.90;;;;;;5011324;28;20034;-51
2022/05/11 07:07:22;;;;;;;8.07;4.18;;;19.20;99.90;;;;;;5010856;28;20540;-51
2022/05/11 07:09:48;;;;;;;11.38;4.30;;;19.20;99.90;;;;;;5010932;28;20037;-51
2022/05/11 07:12:21;;;;;;;12.63;4.53;;;19.20;99.90;;;;;;5010740;28;20037;-51
2022/05/11 07:14:53;;;;;;;9.05;3.78;;;19.20;99.90;;;;;;5011371;28;20036;-52
2022/05/11 07:17:38;;;;;;;11.23;4.20;;;19.40;99.90;;;;;;5010607;28;20034;-50
2022/05/11 07:20:13;;;;;;;8.02;4.03;;;19.50;99.90;;;;;;5011249;28;20064;-51
2022/05/11 07:22:39;;;;;;;8.80;3.92;;;19.60;98.20;;;;;;5011129;28;20025;-52
2022/05/11 07:25:07;;;;;;;11.85;4.20;;;19.70;99.90;;;;;;5011254;28;20033;-52
2022/05/11 07:27:33;;;;;;;12.00;3.78;;;19.90;97.50;;;;;;5010585;28;20095;-52
2022/05/11 07:29:59;;;;;;;8.07;3.70;;;20.00;99.90;;;;;;5011076;28;20034;-52
2022/05/11 07:32:27;;;;;;;11.30;3.70;;;19.90;99.90;;;;;;5013713;28;20099;-51
2022/05/11 07:34:52;;;;;;;9.75;3.72;;;20.00;97.90;;;;;;5030329;28;20033;-51
2022/05/11 07:37:20;;;;;;;10.82;3.97;;;20.20;99.30;;;;;;5030111;28;20036;-51
2022/05/11 07:39:46;;;;;;;6.03;3.45;;;20.10;97.40;;;;;;5030710;28;20025;-51
2022/05/11 07:42:13;;;;;;;10.38;3.75;;;20.10;98.50;;;;;;5029846;28;20052;-51
2022/05/11 07:44:39;;;;;;;9.90;3.60;;;20.20;98.70;;;;;;5030789;28;20052;-50
2022/05/11 07:47:05;;;;;;;10.25;3.80;;;20.40;99.90;;;;;;5028824;28;20066;-51
2022/05/11 07:49:31;;;;;;;8.15;3.67;;;20.40;96.80;;;;;;5029358;28;20021;-50
2022/05/11 07:51:57;;;;;;;9.98;3.95;;;20.40;98.40;;;;;;5028866;28;20048;-51
2022/05/11 07:54:22;;;;;;;7.45;3.50;;;20.60;99.90;;;;;;5033062;28;20045;-51
2022/05/11 08:02:17;;;;;;;14.55;4.65;;;21.00;95.30;;;;;;5017265;28;20044;-51
2022/05/11 08:04:42;;;;;;;13.45;5.30;;;21.20;96.90;;;;;;5030629;28;20026;-50
2022/05/11 08:07:10;;;;;;;9.00;3.78;;;21.40;93.70;;;;;;5030478;28;20550;-51
2022/05/11 08:09:36;;;;;;;12.02;4.05;;;21.40;91.90;;;;;;5030201;28;20049;-51
2022/05/11 08:12:02;;;;;;;13.98;3.60;;;21.50;93.20;;;;;;5029836;28;20072;-50
2022/05/11 08:14:27;;;;;;;12.40;3.92;;;21.40;90.70;;;;;;5028853;28;20033;-51
2022/05/11 08:16:53;;;;;;;8.25;3.50;;;21.50;92.90;;;;;;5028597;28;20028;-51
2022/05/11 08:19:24;;;;;;;7.35;3.40;;;21.80;92.80;;;;;;5027655;28;20930;-49
2022/05/11 08:21:52;;;;;;;10.82;3.35;;;21.60;90.20;;;;;;5026986;28;20037;-50
2022/05/11 08:24:18;;;;;;;;;;;21.70;91.40;;;;;;5028957;28;20060;-51
2022/05/11 08:26:46;;;;;;;10.75;4.22;;;21.90;90.50;;;;;;5027836;28;19905;-51
2022/05/11 08:33:19;;;;;;;12.20;4.65;;;22.00;91.40;;;;;;5028232;28;20018;-50
2022/05/11 08:34:44;;;;;;;11.85;3.60;;;22.10;90.10;;;;;;5028137;28;20024;-51
2022/05/11 08:37:10;;;;;;;10.07;4.35;;;22.20;90.30;;;;;;5029480;28;20034;-50
2022/05/11 08:39:36;;;;;;;9.43;3.80;;;22.40;90.20;;;;;;5029608;28;20479;-51
2022/05/11 08:42:02;;;;;;;15.30;4.15;;;22.50;91.20;;;;;;5029295;28;20492;-50
2022/05/11 08:44:32;;;;;;;9.02;3.70;;;22.60;90.10;;;;;;5029437;28;20021;-50
2022/05/11 08:47:04;;;;;;;14.88;4.22;;;22.70;87.10;;;;;;5029631;28;20033;-51
2022/05/11 08:49:38;;;;;;;8.35;3.60;;;22.90;88.60;;;;;;5029450;28;20025;-51
2022/05/11 08:52:10;;;;;;;12.07;3.80;;;23.10;85.00;;;;;;5029002;28;20397;-51
2022/05/11 08:54:49;;;;;;;18.45;4.70;;;23.10;83.50;;;;;;5030050;28;20103;-51
2022/05/11 08:57:19;;;;;;;11.10;4.35;;;23.00;87.20;;;;;;5028757;28;20060;-50
2022/05/11 08:59:45;;;;;;;6.82;3.60;;;23.30;80.90;;;;;;5029176;28;20111;-50
2022/05/11 09:02:29;;;;;;;7.88;3.40;;;23.30;80.80;;;;;;5028937;28;20022;-50
2022/05/11 09:05:00;;;;;;;7.47;3.90;;;23.50;85.10;;;;;;5029553;28;20144;-50
2022/05/11 09:07:35;;;;;;;8.98;3.75;;;23.50;78.40;;;;;;5029298;28;20135;-51
2022/05/11 09:10:01;;;;;;;6.35;3.50;;;23.50;81.70;;;;;;5028925;28;20040;-51
2022/05/11 09:12:26;;;;;;;15.43;3.78;;;23.50;80.10;;;;;;5028916;28;20045;-50
2022/05/11 09:14:56;;;;;;;8.13;3.78;;;23.50;79.70;;;;;;5029327;28;20432;-51
2022/05/11 09:17:26;;;;;;;8.13;4.88;;;23.80;78.60;;;;;;5029089;28;20119;-52
2022/05/11 09:20:11;;;;;;;13.55;4.47;;;24.00;77.10;;;;;;5029265;28;20025;-50
2022/05/11 09:22:54;;;;;;;7.00;3.47;;;24.10;74.60;;;;;;5029175;28;20033;-50
2022/05/11 09:25:26;;;;;;;5.85;3.60;;;24.20;75.10;;;;;;5011160;28;20027;-49
2022/05/11 09:27:54;;;;;;;7.55;3.38;;;23.80;73.50;;;;;;5029205;28;20029;-49
2022/05/11 09:30:26;;;;;;;7.55;4.10;;;24.00;77.70;;;;;;5028894;28;20021;-51
2022/05/11 09:33:16;;;;;;;6.78;3.33;;;24.10;78.40;;;;;;5028843;28;20041;-50
2022/05/11 09:35:44;;;;;;;10.25;3.70;;;24.30;75.00;;;;;;5028817;28;20025;-51
2022/05/11 09:38:21;;;;;;;34.42;27.08;;;24.10;76.70;;;;;;5030158;28;20041;-50
2022/05/11 09:41:05;;;;;;;8.57;5.32;;;24.40;74.60;;;;;;5032719;28;20061;-51
2022/05/11 09:43:35;;;;;;;6.32;3.80;;;24.80;75.80;;;;;;5032044;28;20026;-51
2022/05/11 09:46:28;;;;;;;6.07;3.60;;;24.50;71.80;;;;;;5032001;28;20033;-51
2022/05/11 09:48:59;;;;;;;6.43;4.50;;;24.70;72.80;;;;;;5032118;28;20028;-52
2022/05/11 09:51:34;;;;;;;9.02;3.90;;;24.30;66.20;;;;;;5032740;28;20514;-51
2022/05/11 09:54:18;;;;;;;9.80;4.25;;;24.60;68.70;;;;;;5032284;28;20030;-52
2022/05/11 09:57:02;;;;;;;6.05;3.80;;;24.70;67.80;;;;;;5031900;28;20455;-52
2022/05/11 09:59:37;;;;;;;5.95;3.70;;;24.70;70.70;;;;;;5031953;28;20112;-52
2022/05/11 10:02:38;;;;;;;8.45;3.60;;;25.00;69.30;;;;;;5022407;28;20029;-52
2022/05/11 10:05:12;;;;;;;9.80;4.00;;;25.20;71.10;;;;;;5011866;28;20026;-51
2022/05/11 10:07:46;;;;;;;7.88;3.75;;;24.80;68.60;;;;;;5010883;28;20029;-52
2022/05/11 10:10:17;;;;;;;7.82;3.72;;;24.80;71.30;;;;;;5012037;28;20022;-52
2022/05/11 10:12:43;;;;;;;6.63;3.92;;;24.70;69.50;;;;;;5012292;28;20396;-51
2022/05/11 10:21:53;;;;;;;9.88;3.88;;;24.80;69.80;;;;;;5010046;28;20084;-52
2022/05/11 10:24:56;;;;;;;8.98;4.20;;;25.00;70.90;;;;;;5011883;28;20030;-51
2022/05/11 10:27:41;;;;;;;11.00;4.18;;;25.20;66.60;;;;;;5012122;28;20030;-51
2022/05/11 10:30:10;;;;;;;5.50;3.50;;;25.00;65.20;;;;;;4994719;28;20022;-51
2022/05/11 10:32:54;;;;;;;8.05;4.22;;;25.20;65.60;;;;;;4994732;28;20448;-51
2022/05/11 10:35:27;;;;;;;8.88;3.47;;;24.90;64.10;;;;;;5012798;28;20072;-52
2022/05/11 10:38:01;;;;;;;4.53;3.22;;;24.80;66.60;;;;;;5012453;28;20062;-51
2022/05/11 10:40:52;;;;;;;14.35;3.60;;;24.90;65.80;;;;;;5012200;28;20180;-52
2022/05/11 10:43:51;;;;;;;4.93;3.45;;;24.90;66.40;;;;;;5012330;28;20022;-53
2022/05/11 10:46:27;;;;;;;10.70;4.05;;;24.70;68.30;;;;;;4994535;28;20124;-53
2022/05/11 10:49:02;;;;;;;5.70;3.63;;;24.80;67.30;;;;;;4995435;28;20037;-51
2022/05/11 10:51:58;;;;;;;11.07;3.92;;;25.20;65.60;;;;;;5011875;28;20065;-52
2022/05/11 10:54:57;;;;;;;5.13;4.03;;;25.40;65.30;;;;;;5012428;28;20166;-51
2022/05/11 10:57:33;;;;;;;10.98;4.43;;;25.20;65.00;;;;;;5011981;28;20046;-51
2022/05/11 11:00:09;;;;;;;5.97;3.50;;;25.00;63.70;;;;;;5012360;28;20029;-52
2022/05/11 11:03:01;;;;;;;7.03;3.35;;;25.00;63.20;;;;;;5011557;28;20033;-56
2022/05/11 11:07:10;;;;;;;6.30;3.28;;;25.30;64.80;;;;;;5022398;28;20029;-50
2022/05/11 11:08:44;;;;;;;19.65;4.55;;;25.20;64.30;;;;;;5032818;28;20030;-52
2022/05/11 11:11:17;;;;;;;9.07;3.63;;;25.50;63.40;;;;;;5037611;28;20017;-52
2022/05/11 11:13:50;;;;;;;13.68;3.83;;;25.50;60.80;;;;;;5051104;28;20039;-51
2022/05/11 11:16:16;;;;;;;35.33;5.45;;;25.50;60.20;;;;;;5050917;28;20048;-51
2022/05/11 11:18:46;;;;;;;5.38;3.70;;;25.90;60.60;;;;;;5032843;28;20025;-51
2022/05/11 11:21:13;;;;;;;5.20;3.45;;;25.70;56.90;;;;;;5050379;28;20025;-51
2022/05/11 11:23:47;;;;;;;7.55;3.38;;;25.50;56.90;;;;;;5050636;28;20375;-52
2022/05/11 11:26:48;;;;;;;11.90;3.50;;;25.50;58.70;;;;;;5050464;28;20079;-51
2022/05/11 11:29:14;;;;;;;5.47;3.60;;;25.60;59.40;;;;;;5017640;28;20044;-51
2022/05/11 11:31:58;;;;;;;8.73;3.13;;;25.60;59.40;;;;;;5050418;28;20021;-51
2022/05/11 11:34:27;;;;;;;5.82;3.13;;;25.50;56.30;;;;;;5048880;28;20116;-51
2022/05/11 11:36:54;;;;;;;8.68;3.47;;;25.60;57.50;;;;;;5050343;28;20371;-51
2022/05/11 11:39:58;;;;;;;5.35;3.50;;;25.50;57.10;;;;;;5050087;28;20033;-52
2022/05/11 11:42:44;;;;;;;8.63;3.50;;;25.50;58.70;;;;;;5049910;28;20063;-53
2022/05/11 11:45:31;;;;;;;7.43;2.85;;;25.50;56.70;;;;;;5050268;28;20305;-52
2022/05/11 11:48:03;;;;;;;13.98;3.70;;;25.40;54.30;;;;;;5049748;28;20029;-52
2022/05/11 11:50:59;;;;;;;9.32;3.35;;;25.40;55.00;;;;;;5050037;28;20071;-53
2022/05/11 11:53:38;;;;;;;6.80;3.58;;;25.30;54.50;;;;;;5049728;28;20325;-51
2022/05/11 11:56:22;;;;;;;8.10;3.03;;;25.30;55.90;;;;;;5049490;28;20039;-51
2022/05/11 11:59:10;;;;;;;6.90;2.85;;;25.50;53.90;;;;;;5048983;28;20024;-51
2022/05/11 12:01:46;;;;;;;4.80;3.15;;;25.70;52.90;;;;;;5013372;28;20028;-51
2022/05/11 12:04:24;;;;;;;7.57;2.83;;;25.70;55.80;;;;;;5030419;28;20048;-51
2022/05/11 12:15:30;;;;;;;8.88;3.30;;;25.90;52.80;;;;;;5028660;28;20067;-51
2022/05/11 12:17:57;;;;;;;12.73;2.90;;;26.10;53.70;;;;;;5028783;28;20029;-51
2022/05/11 12:20:23;;;;;;;7.83;2.90;;;25.90;53.60;;;;;;5028677;28;20095;-51
2022/05/11 12:22:58;;;;;;;12.52;3.25;;;25.70;52.20;;;;;;5028442;28;20754;-51
2022/05/11 12:25:36;;;;;;;4.75;3.25;;;25.50;55.00;;;;;;5028876;28;20022;-51
2022/05/11 12:28:17;;;;;;;5.38;3.33;;;25.60;54.30;;;;;;5029497;28;20033;-51
2022/05/11 12:30:43;;;;;;;4.38;2.88;;;25.40;51.80;;;;;;5029184;28;20030;-51
2022/05/11 12:33:18;;;;;;;17.05;3.38;;;25.50;54.20;;;;;;5028565;28;20043;-51
2022/05/11 12:35:46;;;;;;;11.40;3.30;;;25.80;54.70;;;;;;5028913;28;20474;-51
2022/05/11 12:38:13;;;;;;;7.80;3.42;;;26.00;53.40;;;;;;5028826;28;20033;-51
2022/05/11 12:40:41;;;;;;;8.95;2.70;;;26.30;52.70;;;;;;5028574;28;20017;-51
2022/05/11 12:43:28;;;;;;;6.22;3.00;;;26.40;52.80;;;;;;5027235;28;20488;-51
2022/05/11 12:45:58;;;;;;;9.93;2.83;;;26.70;52.70;;;;;;5026958;28;20029;-51
2022/05/11 12:48:29;;;;;;;13.00;3.90;;;26.90;53.90;;;;;;5029024;28;20071;-51
2022/05/11 12:51:01;;;;;;;9.40;4.07;;;26.80;51.80;;;;;;5028716;28;20046;-51
2022/05/11 12:53:33;;;;;;;12.50;3.60;;;27.00;52.60;;;;;;5028209;28;20036;-51
2022/05/11 12:56:12;;;;;;;13.10;3.63;;;26.70;51.60;;;;;;5029048;28;20052;-51
2022/05/11 12:58:47;;;;;;;6.63;3.20;;;26.90;52.20;;;;;;5028600;28;20049;-51
2022/05/11 13:01:16;;;;;;;6.47;3.20;;;26.80;52.10;;;;;;5045750;28;20029;-51
2022/05/11 13:03:42;;;;;;;8.32;3.75;;;26.40;53.00;;;;;;5028467;28;20029;-51
2022/05/11 13:06:27;;;;;;;42.67;5.25;;;26.40;52.80;;;;;;5028592;28;20091;-51
2022/05/11 13:08:57;;;;;;;16.55;3.42;;;26.20;53.60;;;;;;5028692;28;20049;-52
2022/05/11 13:11:25;;;;;;;6.75;3.30;;;26.30;51.30;;;;;;5028767;28;20107;-51
2022/05/11 13:13:55;;;;;;;14.07;3.28;;;26.60;53.50;;;;;;5030965;28;20037;-51
2022/05/11 13:16:33;;;;;;;7.35;3.03;;;26.70;52.30;;;;;;5032404;28;20551;-51
2022/05/11 13:19:27;;;;;;;10.13;3.13;;;26.80;52.40;;;;;;5047630;28;20025;-51
2022/05/11 13:22:11;;;;;;;10.38;3.25;;;26.50;52.80;;;;;;5031708;28;20021;-51
2022/05/11 13:24:41;;;;;;;5.47;2.65;;;26.70;53.30;;;;;;5030512;28;20065;-51
2022/05/11 13:27:48;;;;;;;8.10;3.33;;;26.70;53.60;;;;;;5028715;28;20076;-51
2022/05/11 13:30:20;;;;;;;9.25;3.47;;;26.10;53.30;;;;;;5030453;28;20027;-51
2022/05/11 13:32:55;;;;;;;8.30;3.58;;;26.40;52.50;;;;;;5030129;28;20364;-51
2022/05/11 13:35:21;;;;;;;7.80;3.67;;;26.40;53.20;;;;;;5032045;28;20018;-49
2022/05/11 13:38:01;;;;;;;14.73;3.22;;;26.60;53.00;;;;;;5011110;28;20032;-50